Time;durP1;ratioP1;P1;durP2;ratioP2;P2;SDS_P1;SDS_P2;PMS_P1;PMS_P2;Temp;Humidity;BMP_temperature;BMP_pressure;BME280_temperature;BME280_humidity;BME280_pressure;Samples;Min_cycle;Max_cycle;Signal;HPM_P1;HPM_P2
2023/08/28 00:01:49;;;;;;;10.10;3.65;;;15.60;99.90;;;;;;5101753;28;20052;-67
2023/08/28 00:04:15;;;;;;;6.88;3.20;;;15.60;99.90;;;;;;5102474;28;20119;-66
2023/08/28 00:06:40;;;;;;;13.38;4.43;;;15.50;99.90;;;;;;5102951;28;20032;-67
2023/08/28 00:09:07;;;;;;;10.15;4.25;;;15.50;99.90;;;;;;5101407;28;20031;-67
2023/08/28 00:11:33;;;;;;;8.00;3.65;;;15.40;99.90;;;;;;5102469;28;20481;-67
2023/08/28 00:13:59;;;;;;;6.32;3.10;;;15.40;99.90;;;;;;5103189;28;20032;-67
2023/08/28 00:16:25;;;;;;;7.15;3.22;;;15.40;99.90;;;;;;5100766;28;20304;-67
2023/08/28 00:18:50;;;;;;;8.35;3.35;;;15.40;99.90;;;;;;5102760;28;20141;-66
2023/08/28 00:21:16;;;;;;;10.73;4.10;;;15.40;99.90;;;;;;5103059;28;20032;-66
2023/08/28 00:23:41;;;;;;;10.02;3.03;;;15.40;99.90;;;;;;5101333;28;20455;-68
2023/08/28 00:26:07;;;;;;;8.50;2.72;;;15.30;99.90;;;;;;5103138;28;20414;-69
2023/08/28 00:28:33;;;;;;;6.30;3.03;;;15.30;99.90;;;;;;5101201;28;20024;-67
2023/08/28 00:30:58;;;;;;;8.60;3.78;;;15.30;99.90;;;;;;5099015;28;20024;-67
2023/08/28 00:33:25;;;;;;;9.40;3.95;;;15.30;99.90;;;;;;5092514;28;20104;-66
2023/08/28 00:35:51;;;;;;;7.65;2.97;;;15.20;99.90;;;;;;5105929;28;20020;-67
2023/08/28 00:38:16;;;;;;;9.35;3.58;;;15.20;99.90;;;;;;5112875;28;20042;-66
2023/08/28 00:40:42;;;;;;;8.25;4.15;;;15.20;99.90;;;;;;5113429;28;20024;-66
2023/08/28 00:43:08;;;;;;;8.23;4.05;;;15.20;99.90;;;;;;5113204;28;20019;-67
2023/08/28 00:45:39;;;;;;;7.47;3.50;;;15.20;99.90;;;;;;5113214;28;20747;-67
2023/08/28 00:48:04;;;;;;;10.25;3.70;;;15.10;99.90;;;;;;5111941;28;20023;-66
2023/08/28 00:50:30;;;;;;;8.63;3.83;;;15.10;99.90;;;;;;5113527;28;20522;-67
2023/08/28 00:52:56;;;;;;;11.55;3.65;;;15.00;99.90;;;;;;5112944;28;20031;-66
2023/08/28 00:55:23;;;;;;;10.02;3.50;;;15.00;99.90;;;;;;5113430;28;20020;-66
2023/08/28 00:57:48;;;;;;;8.55;3.70;;;15.00;99.90;;;;;;5095215;28;20032;-66
2023/08/28 01:00:15;;;;;;;10.05;3.08;;;15.00;99.90;;;;;;5092618;28;20039;-67
2023/08/28 01:02:40;;;;;;;9.10;3.63;;;14.90;99.90;;;;;;5092474;28;20103;-67
2023/08/28 01:05:07;;;;;;;8.70;3.67;;;14.90;99.90;;;;;;5092563;28;20131;-66
2023/08/28 01:08:28;;;;;;;5.32;2.55;;;14.90;99.90;;;;;;5091312;28;20383;-66
2023/08/28 01:11:10;;;;;;;7.65;3.55;;;15.00;99.90;;;;;;5010305;28;20044;-66
2023/08/28 01:13:45;;;;;;;5.70;3.28;;;15.00;99.90;;;;;;5015969;28;20394;-65
2023/08/28 01:16:11;;;;;;;8.25;3.25;;;15.00;99.90;;;;;;5089055;28;20463;-66
2023/08/28 01:18:37;;;;;;;6.63;2.45;;;15.00;99.90;;;;;;5111650;28;20034;-67
2023/08/28 01:21:03;;;;;;;7.10;3.28;;;15.00;99.90;;;;;;5111104;28;20362;-66
2023/08/28 01:23:43;;;;;;;7.22;2.83;;;15.00;99.90;;;;;;5112945;28;20042;-67
2023/08/28 01:26:09;;;;;;;3.10;2.35;;;15.00;99.90;;;;;;5112989;28;20045;-65
2023/08/28 01:28:35;;;;;;;4.53;2.58;;;15.10;99.90;;;;;;5112753;28;20237;-67
2023/08/28 01:31:04;;;;;;;7.03;2.70;;;15.20;99.90;;;;;;5112440;28;20031;-66
2023/08/28 01:33:31;;;;;;;4.28;2.20;;;15.20;99.90;;;;;;5112546;28;20084;-66
2023/08/28 01:36:22;;;;;;;5.93;2.65;;;15.30;99.90;;;;;;5097498;28;20028;-66
2023/08/28 01:38:59;;;;;;;6.83;2.93;;;15.40;99.90;;;;;;5092505;28;20433;-66
2023/08/28 01:41:26;;;;;;;4.78;2.50;;;15.40;99.90;;;;;;5092423;28;20059;-66
2023/08/28 01:43:56;;;;;;;6.82;3.00;;;15.40;99.90;;;;;;5092027;28;20111;-67
2023/08/28 01:46:22;;;;;;;7.32;2.50;;;15.40;99.90;;;;;;5092312;28;20020;-66
2023/08/28 01:48:53;;;;;;;6.65;2.97;;;15.40;99.90;;;;;;5105454;28;20038;-66
2023/08/28 01:51:19;;;;;;;8.02;3.50;;;15.40;99.90;;;;;;5112782;28;20028;-66
2023/08/28 01:53:46;;;;;;;6.25;3.22;;;15.30;99.90;;;;;;5112668;28;20024;-66
2023/08/28 01:56:11;;;;;;;6.55;2.80;;;15.20;99.90;;;;;;5112558;28;20038;-66
2023/08/28 01:58:40;;;;;;;5.78;2.60;;;15.10;99.90;;;;;;5111935;28;20019;-66
2023/08/28 02:01:06;;;;;;;5.38;2.58;;;15.10;99.90;;;;;;5112448;28;20055;-66
2023/08/28 02:03:32;;;;;;;5.75;2.47;;;15.00;99.90;;;;;;5112308;28;20483;-66
2023/08/28 02:05:57;;;;;;;5.80;2.83;;;15.10;99.90;;;;;;5112214;28;20024;-67
2023/08/28 02:08:23;;;;;;;7.57;3.15;;;15.00;99.90;;;;;;5112463;28;20028;-66
2023/08/28 02:10:48;;;;;;;5.22;3.20;;;14.90;99.90;;;;;;5112372;28;20081;-66
2023/08/28 02:13:14;;;;;;;6.07;2.53;;;14.90;99.90;;;;;;5112200;28;20032;-66
2023/08/28 02:15:40;;;;;;;8.15;2.50;;;14.90;99.90;;;;;;5111996;28;20118;-66
2023/08/28 02:18:06;;;;;;;7.32;3.13;;;14.80;99.90;;;;;;5112281;28;20122;-66
2023/08/28 02:20:32;;;;;;;6.68;3.38;;;14.90;99.90;;;;;;5112545;28;20067;-66
2023/08/28 02:22:58;;;;;;;5.55;3.75;;;14.90;99.90;;;;;;5111094;28;20100;-67
2023/08/28 02:25:23;;;;;;;6.55;3.90;;;14.90;99.90;;;;;;5111252;28;20032;-66
2023/08/28 02:27:49;;;;;;;8.90;3.60;;;14.90;99.90;;;;;;5112473;28;20064;-65
2023/08/28 02:30:17;;;;;;;9.23;4.00;;;14.90;99.90;;;;;;5115493;28;20034;-67
2023/08/28 02:32:43;;;;;;;7.15;3.28;;;14.80;99.90;;;;;;5116208;28;20024;-67
2023/08/28 02:35:12;;;;;;;5.85;3.33;;;14.70;99.90;;;;;;5106707;27;20024;-66
2023/08/28 02:37:38;;;;;;;5.32;3.28;;;14.70;99.90;;;;;;5095148;28;20047;-66
2023/08/28 02:40:04;;;;;;;7.47;3.55;;;14.70;99.90;;;;;;5111982;28;20032;-66
2023/08/28 02:42:31;;;;;;;5.78;3.10;;;14.60;99.90;;;;;;5115527;27;20063;-67
2023/08/28 02:44:57;;;;;;;8.10;3.50;;;14.60;99.90;;;;;;5114728;28;20023;-67
2023/08/28 02:47:23;;;;;;;4.78;3.15;;;14.60;99.90;;;;;;5114328;28;20047;-66
2023/08/28 02:49:49;;;;;;;6.22;3.15;;;14.60;99.90;;;;;;5115094;28;20020;-67
2023/08/28 02:52:14;;;;;;;5.88;3.13;;;14.70;99.90;;;;;;5115755;28;20027;-67
2023/08/28 02:54:40;;;;;;;7.63;3.50;;;14.70;99.90;;;;;;5114389;28;20024;-67
2023/08/28 02:57:06;;;;;;;5.20;2.80;;;14.70;99.90;;;;;;5114850;28;20044;-67
2023/08/28 02:59:32;;;;;;;4.60;2.40;;;14.70;99.90;;;;;;5115241;28;20040;-67
2023/08/28 03:01:57;;;;;;;6.22;2.35;;;14.80;99.90;;;;;;5115392;28;20058;-67
2023/08/28 03:04:23;;;;;;;6.90;2.50;;;14.80;99.90;;;;;;5115300;28;20057;-66
2023/08/28 03:06:48;;;;;;;4.72;2.80;;;14.80;99.90;;;;;;5115322;28;20110;-67
2023/08/28 03:09:14;;;;;;;4.10;2.85;;;14.90;99.90;;;;;;5114920;28;20028;-67
2023/08/28 03:11:39;;;;;;;4.63;3.03;;;14.90;99.90;;;;;;5115351;28;20032;-66
2023/08/28 03:14:05;;;;;;;6.47;2.75;;;14.90;99.90;;;;;;5114053;28;20035;-66
2023/08/28 03:16:30;;;;;;;8.73;4.00;;;14.80;99.90;;;;;;5114888;28;20039;-66
2023/08/28 03:18:56;;;;;;;6.57;3.70;;;14.70;99.90;;;;;;5114986;28;20035;-66
2023/08/28 03:21:22;;;;;;;7.45;3.42;;;14.60;99.90;;;;;;5114854;28;20102;-66
2023/08/28 03:23:47;;;;;;;6.15;3.10;;;14.60;99.90;;;;;;5114720;28;20098;-66
2023/08/28 03:26:13;;;;;;;6.65;3.17;;;14.50;99.90;;;;;;5114599;28;20035;-66
2023/08/28 03:28:39;;;;;;;8.45;3.13;;;14.40;99.90;;;;;;5115112;28;20110;-66
2023/08/28 03:31:05;;;;;;;5.93;3.22;;;14.40;99.90;;;;;;5114434;28;20067;-66
2023/08/28 03:33:31;;;;;;;6.70;3.08;;;14.30;99.90;;;;;;5114308;28;20031;-66
2023/08/28 03:35:57;;;;;;;8.48;3.03;;;14.20;99.90;;;;;;5114719;28;20502;-67
2023/08/28 03:38:22;;;;;;;3.65;2.60;;;14.20;99.90;;;;;;5114317;27;20506;-66
2023/08/28 03:40:48;;;;;;;5.60;2.90;;;14.20;99.90;;;;;;5113499;28;20036;-66
2023/08/28 03:43:14;;;;;;;5.75;2.90;;;14.10;99.90;;;;;;5114604;28;20020;-66
2023/08/28 03:45:40;;;;;;;6.13;2.53;;;14.10;99.90;;;;;;5114569;28;20031;-67
2023/08/28 03:48:06;;;;;;;3.75;2.50;;;14.10;99.90;;;;;;5113407;28;20438;-66
2023/08/28 03:50:32;;;;;;;6.80;2.75;;;14.00;99.90;;;;;;5114240;28;20116;-67
2023/08/28 03:52:58;;;;;;;5.85;2.67;;;14.00;99.90;;;;;;5114305;28;20055;-66
2023/08/28 03:55:24;;;;;;;2.88;2.50;;;14.00;99.90;;;;;;5114450;28;20031;-67
2023/08/28 03:57:51;;;;;;;6.57;2.63;;;14.00;99.90;;;;;;5114352;28;20040;-67
2023/08/28 04:00:18;;;;;;;4.50;2.08;;;14.00;99.90;;;;;;5114113;28;20023;-66
2023/08/28 04:02:48;;;;;;;5.35;2.20;;;14.00;99.90;;;;;;5114284;28;20087;-65
2023/08/28 04:05:15;;;;;;;4.63;2.30;;;13.90;99.90;;;;;;5113590;28;20115;-66
2023/08/28 04:07:40;;;;;;;6.30;2.47;;;13.90;99.90;;;;;;5113777;28;20024;-66
2023/08/28 04:10:07;;;;;;;4.88;2.92;;;13.90;99.90;;;;;;5113520;28;20106;-67
2023/08/28 04:12:33;;;;;;;6.25;3.10;;;13.90;99.90;;;;;;5113793;28;20023;-66
2023/08/28 04:14:58;;;;;;;3.35;2.80;;;13.90;99.90;;;;;;5114004;28;20486;-66
2023/08/28 04:17:24;;;;;;;4.18;2.55;;;13.80;99.90;;;;;;5112554;28;20040;-66
2023/08/28 04:19:51;;;;;;;4.40;3.03;;;13.80;99.90;;;;;;5113783;28;20421;-67
2023/08/28 04:22:20;;;;;;;5.25;3.20;;;13.80;99.90;;;;;;5113534;28;20027;-66
2023/08/28 04:24:49;;;;;;;9.63;4.28;;;13.80;99.90;;;;;;5113638;28;20020;-66
2023/08/28 04:27:14;;;;;;;7.18;3.83;;;13.80;99.90;;;;;;5114066;28;20060;-66
2023/08/28 04:29:40;;;;;;;5.10;3.35;;;13.70;99.90;;;;;;5113567;28;20078;-66
2023/08/28 04:32:06;;;;;;;5.60;3.33;;;13.70;99.90;;;;;;5106201;28;20031;-66
2023/08/28 04:34:32;;;;;;;6.28;3.08;;;13.70;99.90;;;;;;5096063;28;20028;-66
2023/08/28 04:36:57;;;;;;;6.88;3.58;;;13.60;99.90;;;;;;5112742;28;20130;-66
2023/08/28 04:39:23;;;;;;;5.57;3.50;;;13.70;99.90;;;;;;5113737;28;20370;-66
2023/08/28 04:41:52;;;;;;;5.93;3.38;;;13.70;99.90;;;;;;5111387;28;20019;-66
2023/08/28 04:44:18;;;;;;;4.10;3.20;;;13.60;99.90;;;;;;5092164;28;20055;-66
2023/08/28 04:46:46;;;;;;;5.35;3.30;;;13.60;99.90;;;;;;5092150;28;20066;-66
2023/08/28 04:49:11;;;;;;;5.45;3.80;;;13.60;99.90;;;;;;5112166;28;20031;-67
2023/08/28 04:51:37;;;;;;;6.80;3.80;;;13.60;99.90;;;;;;5112925;28;20052;-66
2023/08/28 04:54:03;;;;;;;7.78;4.93;;;13.60;99.90;;;;;;5112665;28;20681;-66
2023/08/28 04:56:29;;;;;;;6.78;4.40;;;13.60;99.90;;;;;;5111616;27;20027;-66
2023/08/28 04:58:54;;;;;;;8.02;5.10;;;13.70;99.90;;;;;;5112653;28;20023;-65
2023/08/28 05:01:20;;;;;;;8.63;4.80;;;13.70;99.90;;;;;;5112631;28;20035;-66
2023/08/28 05:03:45;;;;;;;10.00;4.25;;;13.70;99.90;;;;;;5112408;28;20142;-65
2023/08/28 05:06:11;;;;;;;6.38;3.50;;;13.80;99.90;;;;;;5112335;28;20028;-65
2023/08/28 05:08:37;;;;;;;8.38;4.50;;;13.80;99.90;;;;;;5113321;28;20020;-67
2023/08/28 05:11:04;;;;;;;6.75;3.67;;;13.80;99.90;;;;;;5112822;28;20047;-66
2023/08/28 05:13:30;;;;;;;10.73;3.92;;;13.90;99.90;;;;;;5112927;28;20015;-66
2023/08/28 05:15:55;;;;;;;7.60;4.47;;;13.90;99.90;;;;;;5112733;28;20024;-67
2023/08/28 05:18:22;;;;;;;8.32;4.47;;;14.00;99.90;;;;;;5111265;28;20047;-65
2023/08/28 05:20:47;;;;;;;7.20;3.90;;;14.00;99.90;;;;;;5112517;28;20058;-66
2023/08/28 05:23:13;;;;;;;8.80;4.30;;;14.10;99.90;;;;;;5111211;28;20055;-66
2023/08/28 05:25:38;;;;;;;9.93;4.30;;;14.10;99.90;;;;;;5112501;28;20020;-65
2023/08/28 05:28:04;;;;;;;9.57;4.47;;;14.20;99.90;;;;;;5112999;28;20032;-65
2023/08/28 05:30:30;;;;;;;8.77;4.20;;;14.30;99.90;;;;;;5112649;28;20143;-65
2023/08/28 05:32:55;;;;;;;7.47;4.10;;;14.30;99.90;;;;;;5112808;28;20039;-66
2023/08/28 05:35:21;;;;;;;7.05;4.15;;;14.40;99.90;;;;;;5112039;28;20039;-66
2023/08/28 05:37:47;;;;;;;7.72;4.70;;;14.50;99.90;;;;;;5111109;28;20032;-66
2023/08/28 05:40:14;;;;;;;7.07;4.10;;;14.50;99.90;;;;;;5112163;28;20062;-66
2023/08/28 05:42:43;;;;;;;8.68;4.43;;;14.50;99.90;;;;;;5112623;28;20106;-67
2023/08/28 05:45:09;;;;;;;8.40;4.65;;;14.50;99.90;;;;;;5100102;28;20036;-68
2023/08/28 05:47:36;;;;;;;12.07;4.30;;;14.50;99.90;;;;;;5103505;28;20047;-66
2023/08/28 05:50:03;;;;;;;11.10;4.80;;;14.60;99.90;;;;;;5091884;28;20023;-65
2023/08/28 05:52:29;;;;;;;9.55;4.63;;;14.60;99.90;;;;;;5095658;28;20039;-66
2023/08/28 05:54:54;;;;;;;12.93;5.30;;;14.70;99.90;;;;;;5112295;28;20027;-67
2023/08/28 05:57:20;;;;;;;12.70;5.13;;;14.70;99.90;;;;;;5111678;28;20420;-66
2023/08/28 05:59:46;;;;;;;7.82;5.43;;;14.80;99.90;;;;;;5112449;28;20100;-67
2023/08/28 06:02:12;;;;;;;10.48;5.97;;;14.90;99.90;;;;;;5111968;28;20459;-65
2023/08/28 06:04:38;;;;;;;9.65;5.20;;;14.90;99.90;;;;;;5114600;28;20074;-66
2023/08/28 06:07:04;;;;;;;10.23;6.22;;;14.90;99.90;;;;;;5116193;28;20059;-66
2023/08/28 06:09:30;;;;;;;10.48;5.15;;;15.00;99.90;;;;;;5115945;28;20032;-66
2023/08/28 06:11:55;;;;;;;9.20;5.13;;;15.10;99.90;;;;;;5116662;28;20027;-66
2023/08/28 06:14:21;;;;;;;10.15;4.95;;;15.30;99.90;;;;;;5115124;28;20107;-66
2023/08/28 06:16:46;;;;;;;15.27;5.90;;;15.40;99.90;;;;;;5115852;28;20071;-67
2023/08/28 06:19:12;;;;;;;10.05;5.88;;;15.60;99.90;;;;;;5115602;28;20032;-66
2023/08/28 06:21:40;;;;;;;9.38;4.55;;;15.80;99.90;;;;;;5116115;28;20027;-66
2023/08/28 06:24:05;;;;;;;10.40;4.53;;;15.90;99.90;;;;;;5115736;28;20042;-66
2023/08/28 06:26:31;;;;;;;9.48;4.68;;;16.00;99.90;;;;;;5115797;28;20134;-66
2023/08/28 06:28:57;;;;;;;10.00;4.18;;;16.10;99.90;;;;;;5115021;28;20391;-66
2023/08/28 06:31:23;;;;;;;15.43;7.10;;;16.20;99.90;;;;;;5115417;28;20019;-67
2023/08/28 06:33:48;;;;;;;7.95;4.65;;;16.20;99.90;;;;;;5115352;28;20058;-66
2023/08/28 06:36:14;;;;;;;8.63;5.50;;;16.30;99.90;;;;;;5115932;28;20057;-66
2023/08/28 06:38:40;;;;;;;11.50;5.35;;;16.30;99.90;;;;;;5115573;28;20027;-66
2023/08/28 06:41:05;;;;;;;11.45;6.93;;;16.50;99.90;;;;;;5115421;28;20032;-66
2023/08/28 06:43:31;;;;;;;8.73;4.53;;;16.50;99.90;;;;;;5115377;28;20042;-65
2023/08/28 06:45:56;;;;;;;20.33;12.20;;;16.50;99.90;;;;;;5115462;28;20031;-66
2023/08/28 06:48:22;;;;;;;16.08;9.48;;;16.60;99.90;;;;;;5115022;28;20030;-67
2023/08/28 06:50:47;;;;;;;11.52;6.93;;;16.70;99.90;;;;;;5115120;28;20020;-66
2023/08/28 06:53:13;;;;;;;12.02;8.27;;;16.80;99.90;;;;;;5114951;28;20041;-66
2023/08/28 06:55:39;;;;;;;14.45;7.60;;;17.10;99.90;;;;;;5114798;28;20062;-66
2023/08/28 06:58:04;;;;;;;16.77;9.45;;;17.30;99.90;;;;;;5115247;28;20074;-66
2023/08/28 07:00:30;;;;;;;15.70;8.02;;;17.50;99.90;;;;;;5115001;28;20023;-66
2023/08/28 07:02:56;;;;;;;9.73;4.35;;;17.60;99.90;;;;;;5115421;28;20101;-66
2023/08/28 07:05:21;;;;;;;11.70;5.07;;;17.80;99.90;;;;;;5114947;28;20047;-66
2023/08/28 07:07:47;;;;;;;13.00;4.82;;;18.40;99.90;;;;;;5115366;28;20092;-66
2023/08/28 07:10:13;;;;;;;5.25;2.78;;;19.10;99.90;;;;;;5114446;28;20107;-67
2023/08/28 07:12:38;;;;;;;5.43;3.00;;;19.70;99.90;;;;;;5114345;28;20080;-66
2023/08/28 07:15:18;;;;;;;9.27;3.17;;;20.30;99.90;;;;;;5113992;28;20059;-66
2023/08/28 07:17:43;;;;;;;6.75;2.97;;;20.70;99.90;;;;;;5115089;28;20031;-66
2023/08/28 07:20:09;;;;;;;6.63;3.17;;;21.00;99.90;;;;;;5115023;28;20024;-66
2023/08/28 07:22:35;;;;;;;3.55;2.25;;;21.20;99.90;;;;;;5115082;28;20087;-65
2023/08/28 07:25:01;;;;;;;5.57;1.48;;;21.30;99.90;;;;;;5114559;28;20031;-66
2023/08/28 07:27:27;;;;;;;5.75;2.85;;;21.40;99.90;;;;;;5114817;28;20035;-66
2023/08/28 07:29:52;;;;;;;5.20;1.88;;;21.70;99.90;;;;;;5113759;28;20508;-65
2023/08/28 07:32:18;;;;;;;5.45;1.50;;;22.10;99.90;;;;;;5114627;28;20195;-66
2023/08/28 07:34:43;;;;;;;6.35;2.80;;;22.50;99.90;;;;;;5114815;28;20063;-66
2023/08/28 07:37:09;;;;;;;4.32;1.48;;;23.00;99.90;;;;;;5114683;28;20044;-66
2023/08/28 07:39:35;;;;;;;1.85;0.85;;;23.40;99.90;;;;;;5114944;28;20100;-66
2023/08/28 07:42:01;;;;;;;5.32;1.55;;;23.90;99.90;;;;;;5114398;28;20024;-66
2023/08/28 07:44:26;;;;;;;6.47;1.80;;;24.40;99.90;;;;;;5108742;28;20040;-66
2023/08/28 07:46:52;;;;;;;4.18;1.80;;;25.00;99.90;;;;;;5095970;28;20081;-67
2023/08/28 07:49:18;;;;;;;5.13;1.88;;;25.60;99.30;;;;;;5098380;28;20068;-68
2023/08/28 07:51:44;;;;;;;3.67;1.50;;;26.20;98.50;;;;;;5110986;28;20023;-66
2023/08/28 07:54:11;;;;;;;3.35;1.65;;;26.80;97.60;;;;;;5109061;28;20383;-66
2023/08/28 07:56:36;;;;;;;5.68;1.65;;;27.30;96.80;;;;;;5113465;28;20040;-66
2023/08/28 07:59:04;;;;;;;5.25;2.00;;;27.70;96.00;;;;;;5112710;28;20515;-66
2023/08/28 08:01:30;;;;;;;2.72;1.15;;;27.90;96.00;;;;;;5093754;28;20464;-66
2023/08/28 08:03:56;;;;;;;4.07;1.63;;;28.20;95.70;;;;;;5100889;28;20380;-66
2023/08/28 08:06:22;;;;;;;4.38;1.00;;;28.80;94.80;;;;;;5114056;28;20507;-66
2023/08/28 08:08:48;;;;;;;4.45;1.10;;;29.60;94.10;;;;;;5114309;28;20024;-67
2023/08/28 08:11:14;;;;;;;2.10;1.00;;;30.30;93.10;;;;;;5113355;28;20031;-67
2023/08/28 08:13:39;;;;;;;2.75;1.35;;;31.10;92.70;;;;;;5113226;27;20023;-66
2023/08/28 08:16:05;;;;;;;3.58;1.85;;;31.90;91.40;;;;;;5110939;28;20020;-67
2023/08/28 08:18:31;;;;;;;4.68;1.00;;;32.50;90.60;;;;;;5092905;28;20079;-65
2023/08/28 08:20:57;;;;;;;2.40;1.00;;;33.20;89.30;;;;;;5101507;28;20100;-66
2023/08/28 08:23:23;;;;;;;1.67;1.25;;;33.80;87.00;;;;;;5113434;28;20493;-66
2023/08/28 08:25:49;;;;;;;2.35;1.38;;;34.30;86.80;;;;;;5111074;28;20055;-67
2023/08/28 08:28:18;;;;;;;1.73;1.33;;;35.00;84.90;;;;;;5113342;28;20471;-65
2023/08/28 08:30:43;;;;;;;2.80;0.80;;;35.60;83.60;;;;;;5113379;28;20051;-66
2023/08/28 08:33:10;;;;;;;2.28;1.35;;;36.10;81.30;;;;;;5113587;28;20055;-66
2023/08/28 08:35:36;;;;;;;0.75;0.60;;;36.40;80.90;;;;;;5110487;28;20553;-66
2023/08/28 08:38:02;;;;;;;1.27;0.73;;;36.50;80.10;;;;;;5098513;28;20094;-66
2023/08/28 08:40:27;;;;;;;1.08;0.82;;;36.70;78.70;;;;;;5101029;28;20063;-66
2023/08/28 08:42:54;;;;;;;3.13;1.10;;;36.80;77.00;;;;;;5113370;28;20456;-66
2023/08/28 08:45:29;;;;;;;1.75;0.70;;;36.50;79.50;;;;;;5098473;28;20028;-66
2023/08/28 08:47:57;;;;;;;1.98;1.10;;;36.70;79.50;;;;;;5091768;28;20448;-66
2023/08/28 08:50:24;;;;;;;1.75;1.42;;;37.10;78.90;;;;;;5093191;28;20078;-66
2023/08/28 08:52:51;;;;;;;1.88;0.70;;;37.50;78.20;;;;;;5098959;28;20016;-66
2023/08/28 08:55:22;;;;;;;1.10;0.63;;;37.40;77.50;;;;;;5112289;28;20059;-66
2023/08/28 08:57:53;;;;;;;1.23;0.70;;;36.10;78.50;;;;;;5112899;28;20040;-66
2023/08/28 09:00:19;;;;;;;2.90;1.10;;;34.50;80.40;;;;;;5101182;28;20373;-66
2023/08/28 09:02:45;;;;;;;2.17;0.65;;;33.50;82.40;;;;;;5100976;28;20057;-66
2023/08/28 09:05:14;;;;;;;2.25;1.10;;;33.70;82.40;;;;;;5112433;28;20482;-66
2023/08/28 09:07:39;;;;;;;1.60;0.47;;;34.40;80.70;;;;;;5112961;28;20023;-66
2023/08/28 09:10:06;;;;;;;2.65;0.95;;;35.30;80.30;;;;;;5108387;28;20023;-67
2023/08/28 09:12:31;;;;;;;2.55;0.85;;;36.30;78.20;;;;;;5112777;28;20032;-66
2023/08/28 09:14:57;;;;;;;0.95;0.70;;;36.40;78.40;;;;;;5112897;28;20080;-66
2023/08/28 09:17:26;;;;;;;2.67;1.05;;;36.40;78.20;;;;;;5113170;28;20477;-65
2023/08/28 09:19:53;;;;;;;2.83;0.80;;;36.30;77.60;;;;;;5112793;28;20067;-66
2023/08/28 09:22:25;;;;;;;1.13;0.55;;;35.70;77.80;;;;;;5110243;28;20428;-66
2023/08/28 09:24:51;;;;;;;1.42;0.77;;;34.80;78.80;;;;;;5112725;28;20368;-66
2023/08/28 09:27:18;;;;;;;2.20;0.80;;;33.60;80.20;;;;;;5112318;28;20036;-66
2023/08/28 09:29:44;;;;;;;2.38;0.80;;;32.90;81.40;;;;;;5092779;28;20028;-66
2023/08/28 09:32:10;;;;;;;1.35;0.70;;;33.10;80.80;;;;;;5092018;28;20020;-66
2023/08/28 09:34:40;;;;;;;1.15;0.55;;;33.90;79.90;;;;;;5110337;28;20020;-67
2023/08/28 09:37:11;;;;;;;1.95;0.60;;;34.90;78.70;;;;;;5112907;28;20040;-66
2023/08/28 09:39:40;;;;;;;1.85;0.90;;;35.90;78.10;;;;;;5115699;28;20023;-66
2023/08/28 09:42:07;;;;;;;2.63;0.75;;;37.00;77.30;;;;;;5117159;28;20020;-66
2023/08/28 09:44:36;;;;;;;6.20;0.82;;;37.10;76.00;;;;;;5116605;28;20094;-66
2023/08/28 09:47:01;;;;;;;2.20;0.77;;;36.20;76.80;;;;;;5116821;28;20107;-66
2023/08/28 09:49:28;;;;;;;1.63;0.90;;;34.80;77.90;;;;;;5116893;28;20070;-67
2023/08/28 09:51:56;;;;;;;1.90;0.50;;;33.50;79.70;;;;;;5116795;28;20028;-66
2023/08/28 09:54:22;;;;;;;1.10;0.70;;;32.30;81.00;;;;;;5116653;28;20054;-66
2023/08/28 09:56:48;;;;;;;2.00;0.80;;;31.10;82.80;;;;;;5116146;28;20470;-66
2023/08/28 09:59:15;;;;;;;3.67;0.90;;;30.80;84.20;;;;;;5116109;28;20026;-67
2023/08/28 10:01:41;;;;;;;5.30;1.00;;;31.00;84.70;;;;;;5115147;28;20106;-67
2023/08/28 10:04:11;;;;;;;3.53;0.80;;;31.10;83.40;;;;;;5116177;28;20130;-67
2023/08/28 10:06:49;;;;;;;2.47;0.70;;;31.50;83.70;;;;;;5116246;28;20118;-66
2023/08/28 10:09:18;;;;;;;1.23;0.47;;;32.60;82.10;;;;;;5112738;28;20016;-65
2023/08/28 10:11:45;;;;;;;1.40;0.70;;;32.70;81.20;;;;;;5107317;28;20028;-66
2023/08/28 10:14:12;;;;;;;1.00;0.88;;;32.20;83.00;;;;;;5101740;28;20020;-66
2023/08/28 10:16:52;;;;;;;2.80;1.30;;;32.20;83.00;;;;;;5095834;28;20067;-66
2023/08/28 10:19:29;;;;;;;1.98;0.73;;;32.70;82.70;;;;;;5114591;28;20027;-66
2023/08/28 10:21:56;;;;;;;1.42;0.85;;;33.80;80.70;;;;;;5114843;28;20027;-66
2023/08/28 10:24:24;;;;;;;2.50;0.70;;;35.30;78.20;;;;;;5105112;28;20036;-66
2023/08/28 10:26:51;;;;;;;1.30;0.90;;;36.60;77.50;;;;;;5103801;28;20127;-67
2023/08/28 10:29:18;;;;;;;2.15;0.70;;;37.70;76.10;;;;;;5107485;28;20054;-66
2023/08/28 10:31:45;;;;;;;3.53;0.82;;;37.90;75.50;;;;;;5096125;28;20088;-66
2023/08/28 10:34:12;;;;;;;1.30;0.77;;;37.20;75.40;;;;;;5106836;28;20102;-66
2023/08/28 10:36:39;;;;;;;1.02;0.65;;;35.90;75.80;;;;;;5106765;28;20058;-65
2023/08/28 10:39:05;;;;;;;3.45;0.90;;;34.60;77.60;;;;;;5115517;28;20024;-66
2023/08/28 10:41:33;;;;;;;2.30;0.77;;;34.40;78.40;;;;;;5115616;28;20031;-67
2023/08/28 10:44:00;;;;;;;0.52;0.52;;;35.20;78.60;;;;;;5115748;28;20039;-66
2023/08/28 10:46:28;;;;;;;1.83;0.57;;;36.00;77.20;;;;;;5116234;28;20051;-67
2023/08/28 10:49:03;;;;;;;3.35;0.80;;;35.80;76.90;;;;;;5115849;28;20089;-67
2023/08/28 10:51:31;;;;;;;1.73;0.50;;;36.10;77.00;;;;;;5115995;27;20447;-67
2023/08/28 10:54:05;;;;;;;0.65;0.60;;;36.70;76.00;;;;;;5114986;28;20035;-67
2023/08/28 10:56:32;;;;;;;2.15;0.70;;;37.30;75.20;;;;;;5115900;28;20020;-66
2023/08/28 10:59:23;;;;;;;2.78;0.77;;;37.70;74.50;;;;;;5114633;28;20088;-67
2023/08/28 11:02:02;;;;;;;1.02;0.50;;;37.80;74.70;;;;;;5115372;28;20054;-67
2023/08/28 11:04:35;;;;;;;1.35;0.63;;;38.40;73.30;;;;;;5115396;28;20051;-66
2023/08/28 11:07:02;;;;;;;2.55;0.70;;;38.70;72.70;;;;;;5115669;28;20027;-67
2023/08/28 11:09:28;;;;;;;1.50;0.70;;;38.80;72.20;;;;;;5115536;28;20110;-67
2023/08/28 11:12:15;;;;;;;1.95;0.65;;;39.00;73.70;;;;;;5115454;28;20119;-67
2023/08/28 11:14:55;;;;;;;1.88;0.60;;;39.10;72.00;;;;;;5084318;28;20040;-66
2023/08/28 11:17:22;;;;;;;1.45;0.50;;;38.10;72.50;;;;;;5094960;28;20040;-66
2023/08/28 11:19:54;;;;;;;2.72;0.50;;;36.50;74.10;;;;;;5094388;28;20020;-66
2023/08/28 11:22:39;;;;;;;1.63;0.40;;;35.80;75.30;;;;;;5094188;28;20082;-66
2023/08/28 11:25:10;;;;;;;1.52;0.45;;;35.90;75.10;;;;;;5094435;28;20020;-67
2023/08/28 11:27:48;;;;;;;1.05;0.60;;;36.50;74.50;;;;;;5093546;28;20456;-66
2023/08/28 11:30:21;;;;;;;2.08;0.65;;;37.20;74.30;;;;;;5102776;28;20073;-66
2023/08/28 11:32:52;;;;;;;2.17;0.80;;;37.70;73.20;;;;;;5115162;28;20030;-67
2023/08/28 11:35:19;;;;;;;2.00;0.68;;;38.00;73.00;;;;;;5113965;28;20139;-66
2023/08/28 11:37:55;;;;;;;1.50;0.63;;;38.40;72.30;;;;;;5114438;27;20032;-66
2023/08/28 11:40:23;;;;;;;2.13;0.80;;;38.70;71.80;;;;;;5114937;28;20102;-66
2023/08/28 11:42:49;;;;;;;1.25;0.70;;;39.00;72.00;;;;;;5113882;28;20024;-66
2023/08/28 11:45:22;;;;;;;1.40;0.75;;;39.20;71.70;;;;;;5114108;28;20040;-66
2023/08/28 11:47:49;;;;;;;3.53;0.70;;;39.20;70.20;;;;;;5114146;28;20077;-66
2023/08/28 11:50:14;;;;;;;2.90;0.65;;;38.70;71.00;;;;;;5114313;28;20042;-66
2023/08/28 11:52:40;;;;;;;3.13;0.60;;;38.10;71.50;;;;;;5114463;28;20027;-67
2023/08/28 11:55:06;;;;;;;1.98;0.70;;;37.80;72.30;;;;;;5101855;28;20031;-66
2023/08/28 11:57:33;;;;;;;2.53;0.93;;;37.80;72.00;;;;;;5103953;28;20459;-66
2023/08/28 12:00:00;;;;;;;0.98;0.65;;;37.90;71.70;;;;;;5100638;28;20024;-66
2023/08/28 12:02:27;;;;;;;2.72;0.70;;;38.10;71.20;;;;;;5110282;28;20084;-66
2023/08/28 12:04:52;;;;;;;3.47;0.65;;;38.20;70.70;;;;;;5114152;27;20035;-66
2023/08/28 12:07:23;;;;;;;2.63;0.70;;;38.30;70.60;;;;;;5114394;28;20023;-66
2023/08/28 12:09:50;;;;;;;2.83;0.60;;;38.50;71.30;;;;;;5114367;28;20016;-66
2023/08/28 12:12:16;;;;;;;3.72;0.70;;;38.50;70.80;;;;;;5108532;28;20441;-66
2023/08/28 12:14:43;;;;;;;1.08;0.85;;;38.30;71.00;;;;;;5101042;28;20081;-65
2023/08/28 12:17:13;;;;;;;1.38;1.02;;;38.00;71.60;;;;;;5107443;28;20027;-66
2023/08/28 12:19:38;;;;;;;4.97;1.45;;;37.60;71.60;;;;;;5104679;28;20019;-66
2023/08/28 12:22:05;;;;;;;4.10;1.65;;;37.40;71.60;;;;;;5103055;28;20024;-66
2023/08/28 12:24:31;;;;;;;1.80;0.85;;;37.30;72.10;;;;;;5104026;28;20094;-67
2023/08/28 12:26:57;;;;;;;1.30;0.93;;;37.20;72.30;;;;;;5102347;28;20055;-66
2023/08/28 12:29:25;;;;;;;2.25;0.90;;;37.00;72.40;;;;;;5102691;28;20452;-66
2023/08/28 12:31:51;;;;;;;2.92;0.68;;;37.00;72.00;;;;;;5101530;28;20035;-65
2023/08/28 12:34:18;;;;;;;1.65;0.63;;;36.80;73.00;;;;;;5103179;28;20028;-66
2023/08/28 12:36:47;;;;;;;1.20;0.50;;;36.60;72.40;;;;;;5103598;28;20483;-66
2023/08/28 12:39:19;;;;;;;1.58;0.70;;;36.40;71.60;;;;;;5102487;28;20156;-67
2023/08/28 12:42:03;;;;;;;1.35;0.55;;;36.00;72.80;;;;;;5102281;28;20024;-66
2023/08/28 12:44:30;;;;;;;0.77;0.60;;;35.70;73.50;;;;;;5103875;28;20064;-67
2023/08/28 12:46:57;;;;;;;1.50;0.70;;;35.50;73.90;;;;;;5111467;28;20085;-66